createdAt,value
2019-03-11T00:01:18.116Z,74.97
2019-03-11T00:03:48.528Z,77.87
2019-03-11T00:06:18.844Z,77.45
2019-03-11T00:08:49.166Z,75.55
2019-03-11T00:11:19.451Z,73.87
2019-03-11T00:13:50.076Z,76.97
2019-03-11T00:16:20.397Z,75.50
2019-03-11T00:18:50.654Z,73.22
2019-03-11T00:21:20.948Z,72.72
2019-03-11T00:23:51.239Z,73.62
2019-03-11T00:26:21.521Z,75.45
2019-03-11T00:28:54.761Z,73.97
2019-03-11T00:31:25.147Z,70.60
2019-03-11T00:33:55.437Z,71.12
2019-03-11T00:36:25.638Z,72.05
2019-03-11T00:38:55.942Z,68.85
2019-03-11T00:41:26.308Z,70.70
2019-03-11T00:43:56.647Z,70.08
2019-03-11T00:46:27.032Z,70.55
2019-03-11T00:48:57.866Z,70.12
2019-03-11T00:51:28.206Z,70.45
2019-03-11T00:53:58.557Z,68.02
2019-03-11T00:56:28.801Z,66.47
2019-03-11T00:59:00.547Z,66.12
2019-03-11T01:01:30.812Z,66.20
2019-03-11T01:04:01.188Z,63.45
2019-03-11T01:06:32.112Z,65.32
2019-03-11T01:09:02.452Z,63.15
2019-03-11T01:11:34.369Z,60.58
2019-03-11T01:14:08.136Z,63.17
2019-03-11T01:16:39.670Z,61.23
2019-03-11T01:19:10.040Z,63.73
2019-03-11T01:21:40.373Z,61.80
2019-03-11T01:24:10.652Z,63.40
2019-03-11T01:26:40.999Z,58.87
2019-03-11T01:29:11.441Z,60.95
2019-03-11T01:31:41.716Z,60.12
2019-03-11T01:34:12.106Z,58.55
2019-03-11T01:36:42.321Z,57.60
2019-03-11T01:39:12.758Z,58.73
2019-03-11T01:41:43.107Z,58.73
2019-03-11T01:44:13.434Z,57.70
2019-03-11T01:46:46.383Z,57.23
2019-03-11T01:49:16.632Z,55.70
2019-03-11T01:51:46.955Z,57.03
2019-03-11T01:54:17.290Z,56.88
2019-03-11T01:56:47.561Z,55.52
2019-03-11T01:59:17.860Z,55.25
2019-03-11T02:01:48.640Z,56.00
2019-03-11T02:04:19.020Z,54.95
2019-03-11T02:06:49.397Z,52.38
2019-03-11T02:09:19.701Z,52.50
2019-03-11T02:11:50.055Z,52.05
2019-03-11T02:14:20.617Z,51.23
2019-03-11T02:16:50.977Z,51.98
2019-03-11T02:19:21.288Z,52.78
2019-03-11T02:21:51.700Z,52.55
2019-03-11T02:24:22.048Z,52.25
2019-03-11T02:26:52.344Z,50.75
2019-03-11T02:29:22.740Z,52.85
2019-03-11T02:31:52.977Z,51.30
2019-03-11T02:34:23.473Z,49.00
2019-03-11T02:36:53.807Z,50.90
2019-03-11T02:39:24.049Z,49.40
2019-03-11T02:41:54.485Z,47.73
2019-03-11T02:44:24.837Z,47.95
2019-03-11T02:46:55.139Z,46.70
2019-03-11T02:49:25.467Z,49.50
2019-03-11T02:51:56.436Z,46.90
2019-03-11T02:54:26.868Z,46.92
2019-03-11T02:56:58.130Z,46.37
2019-03-11T02:59:28.372Z,45.33
2019-03-11T03:02:23.733Z,45.90
2019-03-11T03:05:04.421Z,44.88
2019-03-11T03:07:34.792Z,43.45
2019-03-11T03:10:05.430Z,45.35
2019-03-11T03:12:35.806Z,44.05
2019-03-11T03:15:07.443Z,44.00
2019-03-11T03:17:37.825Z,43.63
2019-03-11T03:20:08.953Z,44.15
2019-03-11T03:22:39.445Z,42.50
2019-03-11T03:25:10.103Z,42.93
2019-03-11T03:27:40.698Z,41.28
2019-03-11T03:30:13.818Z,41.95
2019-03-11T03:32:44.108Z,42.10
2019-03-11T03:35:14.464Z,41.08
2019-03-11T03:37:44.764Z,40.43
2019-03-11T03:40:15.053Z,41.15
2019-03-11T03:42:45.915Z,39.92
2019-03-11T03:45:35.373Z,41.13
2019-03-11T03:48:05.655Z,38.50
2019-03-11T03:50:38.168Z,37.40
2019-03-11T03:53:10.824Z,36.23
2019-03-11T03:55:41.188Z,37.38
2019-03-11T03:58:11.537Z,35.00
2019-03-11T04:00:44.230Z,35.92
2019-03-11T04:03:14.564Z,40.85
2019-03-11T04:05:44.835Z,44.80
2019-03-11T04:08:15.017Z,69.03
2019-03-11T04:10:45.673Z,61.37
2019-03-11T04:13:21.087Z,54.80
2019-03-11T04:15:51.737Z,56.68
2019-03-11T04:18:22.033Z,53.80
2019-03-11T04:20:52.404Z,50.52
2019-03-11T04:23:22.771Z,51.88
2019-03-11T04:25:53.049Z,57.15
2019-03-11T04:28:23.414Z,54.27
2019-03-11T04:30:53.777Z,51.50
2019-03-11T04:33:24.061Z,52.80
2019-03-11T04:35:54.438Z,52.25
2019-03-11T04:38:24.939Z,52.88
2019-03-11T04:40:55.218Z,50.78
2019-03-11T04:43:25.530Z,52.75
2019-03-11T04:45:55.836Z,51.08
2019-03-11T04:48:27.706Z,53.42
2019-03-11T04:50:58.002Z,50.28
2019-03-11T04:53:28.343Z,54.08
2019-03-11T04:55:58.632Z,51.50
2019-03-11T04:58:28.981Z,50.67
2019-03-11T05:00:59.304Z,49.88
2019-03-11T05:03:32.216Z,49.95
2019-03-11T05:06:03.197Z,48.40
2019-03-11T05:08:33.430Z,50.08
2019-03-11T05:11:04.598Z,47.13
2019-03-11T05:13:34.967Z,48.92
2019-03-11T05:16:05.312Z,47.58
2019-03-11T05:18:35.629Z,47.67
2019-03-11T05:21:05.993Z,45.15
2019-03-11T05:23:36.223Z,45.25
2019-03-11T05:26:06.731Z,44.38
2019-03-11T05:28:37.452Z,44.38
2019-03-11T05:31:07.886Z,44.75
2019-03-11T05:33:38.198Z,43.80
2019-03-11T05:36:08.471Z,42.35
2019-03-11T05:38:38.846Z,43.68
2019-03-11T05:41:09.127Z,43.35
2019-03-11T05:43:39.497Z,42.73
2019-03-11T05:46:11.726Z,43.40
2019-03-11T05:48:41.908Z,45.73
2019-03-11T05:51:12.249Z,45.15
2019-03-11T05:53:42.591Z,45.40
2019-03-11T05:56:13.273Z,47.83
2019-03-11T05:58:43.575Z,48.58
2019-03-11T06:01:13.861Z,48.90
2019-03-11T06:03:44.223Z,50.17
2019-03-11T06:06:15.238Z,52.50
2019-03-11T06:08:45.570Z,48.70
2019-03-11T06:11:15.857Z,49.55
2019-03-11T06:13:46.298Z,43.83
2019-03-11T06:16:16.989Z,39.85
2019-03-11T06:18:52.669Z,31.68
2019-03-11T06:21:52.820Z,32.75
2019-03-11T06:24:23.512Z,32.00
2019-03-11T06:26:53.793Z,32.17
2019-03-11T06:29:30.414Z,33.02
2019-03-11T06:31:56.904Z,33.75
2019-03-11T06:34:27.218Z,37.30
2019-03-11T06:36:59.413Z,32.63
2019-03-11T06:39:29.785Z,39.18
2019-03-11T06:42:00.119Z,36.65
2019-03-11T06:44:30.446Z,39.33
2019-03-11T06:47:00.796Z,37.35
2019-03-11T06:49:31.063Z,34.73
2019-03-11T06:52:03.484Z,36.83
2019-03-11T06:54:33.575Z,36.38
2019-03-11T06:57:03.965Z,35.95
2019-03-11T06:59:34.317Z,36.77
2019-03-11T07:02:04.552Z,35.03
2019-03-11T07:04:35.275Z,35.95
2019-03-11T07:07:05.546Z,33.83
2019-03-11T07:09:35.939Z,32.25
2019-03-11T07:12:06.239Z,33.25
2019-03-11T07:14:36.728Z,33.10
2019-03-11T07:17:07.033Z,32.03
2019-03-11T07:19:37.351Z,30.55
2019-03-11T07:22:07.701Z,32.00
2019-03-11T07:24:38.096Z,30.40
2019-03-11T07:27:09.449Z,31.17
2019-03-11T07:29:39.789Z,30.40
2019-03-11T07:32:11.149Z,30.55
2019-03-11T07:34:41.529Z,29.55
2019-03-11T07:37:11.838Z,29.15
2019-03-11T07:39:42.240Z,29.00
2019-03-11T07:42:14.842Z,28.90
2019-03-11T07:44:45.144Z,28.35
2019-03-11T07:47:15.379Z,28.07
2019-03-11T07:49:45.741Z,27.73
2019-03-11T07:52:16.168Z,26.80
2019-03-11T07:54:46.463Z,27.40
2019-03-11T07:57:16.773Z,26.87
2019-03-11T07:59:47.074Z,25.48
2019-03-11T08:02:18.478Z,25.97
2019-03-11T08:04:48.923Z,26.27
2019-03-11T08:07:19.239Z,27.13
2019-03-11T08:09:49.561Z,25.65
2019-03-11T08:12:19.975Z,24.85
2019-03-11T08:14:50.203Z,26.40
2019-03-11T08:17:19.151Z,25.43
2019-03-11T08:19:47.812Z,24.43
2019-03-11T08:22:16.429Z,23.90
2019-03-11T08:24:45.153Z,23.87
2019-03-11T08:27:14.034Z,23.83
2019-03-11T08:29:46.685Z,24.32
2019-03-11T08:32:16.994Z,25.40
2019-03-11T08:34:47.255Z,22.77
2019-03-11T08:37:18.855Z,23.27
2019-03-11T08:39:50.224Z,23.47
2019-03-11T08:42:20.516Z,21.75
2019-03-11T08:44:50.891Z,23.22
2019-03-11T08:47:21.149Z,21.93
2019-03-11T08:49:51.483Z,21.52
2019-03-11T08:52:21.858Z,20.70
2019-03-11T08:54:53.152Z,20.48
2019-03-11T08:57:23.475Z,20.97
2019-03-11T08:59:53.733Z,20.40
2019-03-11T09:02:23.993Z,20.10
2019-03-11T09:04:54.375Z,21.05
2019-03-11T09:07:24.719Z,20.62
2019-03-11T09:09:54.960Z,18.67
2019-03-11T09:12:25.235Z,19.52
2019-03-11T09:14:55.495Z,17.95
2019-03-11T09:17:25.807Z,19.35
2019-03-11T09:19:56.134Z,18.45
2019-03-11T09:22:26.589Z,18.10
2019-03-11T09:24:56.870Z,17.80
2019-03-11T09:27:27.251Z,17.77
2019-03-11T09:29:57.621Z,17.70
2019-03-11T09:32:27.856Z,18.45
2019-03-11T09:34:58.197Z,17.48
2019-03-11T09:37:29.543Z,17.02
2019-03-11T09:40:01.107Z,17.12
2019-03-11T09:42:35.130Z,17.48
2019-03-11T09:45:06.362Z,17.10
2019-03-11T09:47:36.685Z,17.98
2019-03-11T09:50:07.259Z,16.90
2019-03-11T09:52:37.666Z,16.17
2019-03-11T09:55:09.470Z,16.02
2019-03-11T09:57:39.745Z,16.85
2019-03-11T10:00:13.872Z,15.38
2019-03-11T10:02:52.244Z,15.98
2019-03-11T10:05:16.459Z,16.30
2019-03-11T10:07:46.819Z,15.95
2019-03-11T10:10:17.527Z,15.75
2019-03-11T10:12:47.898Z,15.10
2019-03-11T10:15:19.438Z,14.70
2019-03-11T10:17:49.819Z,14.85
2019-03-11T10:20:20.301Z,14.03
2019-03-11T10:22:50.687Z,14.63
2019-03-11T10:25:21.026Z,14.28
2019-03-11T10:27:51.627Z,13.75
2019-03-11T10:30:22.005Z,14.75
2019-03-11T10:32:52.642Z,14.15
2019-03-11T10:35:32.487Z,14.55
2019-03-11T10:37:55.211Z,13.68
2019-03-11T10:40:26.081Z,13.95
2019-03-11T10:42:56.466Z,13.60
2019-03-11T10:45:31.663Z,13.80
2019-03-11T10:47:58.841Z,12.75
2019-03-11T10:50:30.193Z,13.18
2019-03-11T10:53:00.531Z,13.40
2019-03-11T10:55:31.775Z,13.15
2019-03-11T10:58:02.492Z,12.80
2019-03-11T11:00:33.494Z,11.95
2019-03-11T11:03:03.804Z,12.98
2019-03-11T11:05:35.191Z,12.15
2019-03-11T11:08:05.557Z,12.18
2019-03-11T11:10:35.917Z,12.18
2019-03-11T11:13:08.368Z,12.30
2019-03-11T11:15:38.700Z,12.07
2019-03-11T11:18:08.967Z,12.40
2019-03-11T11:20:39.342Z,10.98
2019-03-11T11:23:09.654Z,11.80
2019-03-11T11:25:40.099Z,11.68
2019-03-11T11:28:11.524Z,10.95
2019-03-11T11:30:41.877Z,11.05
2019-03-11T11:33:12.134Z,10.85
2019-03-11T11:35:42.573Z,11.45
2019-03-11T11:38:12.916Z,10.32
2019-03-11T11:40:43.303Z,10.20
2019-03-11T11:43:13.694Z,9.85
2019-03-11T11:45:44.092Z,10.15
2019-03-11T11:48:16.056Z,10.30
2019-03-11T11:50:46.368Z,10.80
2019-03-11T11:53:16.688Z,10.68
2019-03-11T11:55:57.393Z,10.20
2019-03-11T11:58:20.384Z,10.60
2019-03-11T12:00:50.036Z,10.28
2019-03-11T12:03:18.666Z,10.30
2019-03-11T12:05:47.337Z,9.33
2019-03-11T12:08:17.646Z,9.78
2019-03-11T12:10:49.965Z,9.38
2019-03-11T12:13:20.353Z,9.78
2019-03-11T12:15:50.570Z,9.28
2019-03-11T12:18:20.849Z,8.68
2019-03-11T12:20:51.228Z,8.30
2019-03-11T12:23:21.487Z,9.30
2019-03-11T12:25:51.807Z,8.68
2019-03-11T12:28:22.051Z,8.55
2019-03-11T12:30:52.374Z,8.90
2019-03-11T12:33:22.703Z,7.62
2019-03-11T12:35:53.442Z,8.15
2019-03-11T12:38:23.707Z,8.73
2019-03-11T12:40:56.080Z,7.50
2019-03-11T12:43:27.377Z,8.55
2019-03-11T12:45:58.124Z,7.50
2019-03-11T12:48:28.343Z,7.80
2019-03-11T12:50:58.694Z,7.72
2019-03-11T12:53:28.973Z,8.13
2019-03-11T12:55:59.750Z,7.75
2019-03-11T12:58:40.809Z,6.85
2019-03-11T13:01:03.523Z,7.65
2019-03-11T13:03:33.986Z,7.05
2019-03-11T13:06:04.325Z,7.40
2019-03-11T13:08:34.626Z,6.80
2019-03-11T13:11:04.994Z,7.45
2019-03-11T13:13:35.268Z,7.08
2019-03-11T13:16:05.497Z,7.67
2019-03-11T13:18:41.018Z,7.08
2019-03-11T13:21:40.866Z,6.55
2019-03-11T13:24:11.228Z,6.85
2019-03-11T13:26:41.547Z,6.50
2019-03-11T13:29:11.860Z,6.72
2019-03-11T13:31:42.217Z,6.50
2019-03-11T13:34:12.621Z,6.83
2019-03-11T13:36:42.982Z,7.03
2019-03-11T13:39:14.323Z,6.50
2019-03-11T13:41:44.560Z,5.78
2019-03-11T13:44:14.927Z,6.67
2019-03-11T13:46:45.143Z,6.50
2019-03-11T13:49:15.450Z,6.75
2019-03-11T13:51:45.714Z,6.17
2019-03-11T13:54:16.125Z,5.90
2019-03-11T13:56:46.496Z,6.55
2019-03-11T13:59:16.809Z,6.35
2019-03-11T14:01:47.040Z,6.42
2019-03-11T14:04:17.365Z,6.15
2019-03-11T14:06:47.694Z,6.08
2019-03-11T14:09:18.032Z,6.65
2019-03-11T14:11:48.304Z,5.67
2019-03-11T14:14:18.705Z,6.40
2019-03-11T14:16:48.976Z,5.70
2019-03-11T14:19:19.307Z,5.53
2019-03-11T14:21:49.551Z,6.17
2019-03-11T14:24:20.213Z,6.10
2019-03-11T14:26:50.654Z,5.78
2019-03-11T14:29:21.324Z,5.70
2019-03-11T14:31:52.280Z,5.55
2019-03-11T14:34:25.764Z,5.53
2019-03-11T14:36:56.414Z,5.90
2019-03-11T14:39:26.746Z,5.15
2019-03-11T14:41:58.294Z,7.85
2019-03-11T14:44:28.620Z,6.97
2019-03-11T14:46:58.884Z,6.80
2019-03-11T14:49:29.278Z,5.53
2019-03-11T14:51:59.587Z,5.30
2019-03-11T14:54:29.930Z,16.17
2019-03-11T14:57:00.353Z,32.63
2019-03-11T14:59:30.736Z,32.05
2019-03-11T15:02:01.428Z,16.35
2019-03-11T15:04:32.897Z,10.60
2019-03-11T15:07:05.275Z,16.48
2019-03-11T15:09:35.656Z,14.87
2019-03-11T15:12:05.908Z,25.00
2019-03-11T15:14:36.496Z,12.73
2019-03-11T15:17:06.871Z,15.18
2019-03-11T15:19:39.478Z,12.15
2019-03-11T15:22:09.887Z,9.85
2019-03-11T15:24:41.793Z,11.40
2019-03-11T15:27:12.196Z,15.35
2019-03-11T15:29:42.528Z,23.95
2019-03-11T15:32:15.437Z,37.78
2019-03-11T15:34:45.742Z,22.22
2019-03-11T15:37:16.124Z,54.63
2019-03-11T15:39:46.478Z,32.73
2019-03-11T15:42:16.769Z,32.28
2019-03-11T15:44:47.147Z,58.38
2019-03-11T15:47:17.569Z,57.35
2019-03-11T15:49:47.880Z,59.30
2019-03-11T15:52:21.092Z,44.63
2019-03-11T15:54:51.382Z,44.18
2019-03-11T15:57:21.877Z,38.65
2019-03-11T15:59:52.164Z,37.45
2019-03-11T16:02:22.544Z,34.95
2019-03-11T16:04:52.867Z,29.48
2019-03-11T16:07:23.102Z,35.28
2019-03-11T16:09:53.374Z,57.48
2019-03-11T16:12:23.690Z,59.15
2019-03-11T16:14:54.134Z,58.98
2019-03-11T16:17:24.511Z,56.05
2019-03-11T16:19:54.826Z,52.43
2019-03-11T16:22:26.351Z,58.02
2019-03-11T16:24:56.788Z,51.40
2019-03-11T16:27:27.129Z,47.58
2019-03-11T16:29:57.432Z,49.00
2019-03-11T16:32:27.732Z,45.78
2019-03-11T16:34:58.953Z,47.15
2019-03-11T16:37:29.193Z,47.88
2019-03-11T16:39:59.566Z,41.18
2019-03-11T16:42:31.071Z,42.30
2019-03-11T16:45:01.429Z,38.10
2019-03-11T16:47:32.191Z,38.70
2019-03-11T16:50:02.844Z,37.80
2019-03-11T16:52:33.252Z,35.10
2019-03-11T16:55:04.074Z,34.78
2019-03-11T16:57:34.377Z,33.88
2019-03-11T17:00:05.180Z,33.53
2019-03-11T17:02:35.678Z,31.17
2019-03-11T17:05:06.150Z,32.28
2019-03-11T17:07:36.467Z,30.05
2019-03-11T17:10:07.605Z,29.37
2019-03-11T17:12:39.023Z,31.65
2019-03-11T17:15:09.789Z,29.70
2019-03-11T17:17:40.082Z,27.60
2019-03-11T17:20:11.932Z,26.27
2019-03-11T17:22:42.332Z,25.60
2019-03-11T17:25:12.819Z,25.32
2019-03-11T17:27:43.138Z,27.58
2019-03-11T17:30:14.964Z,25.88
2019-03-11T17:37:26.643Z,22.52
2019-03-11T17:39:57.353Z,29.45
2019-03-11T17:42:28.349Z,45.55
2019-03-11T17:45:07.467Z,36.48
2019-03-11T17:47:38.939Z,30.10
2019-03-11T17:50:18.475Z,28.87
2019-03-11T17:52:50.912Z,27.35
2019-03-11T17:55:22.057Z,23.18
2019-03-11T17:57:52.564Z,11.65
2019-03-11T18:00:26.145Z,16.52
2019-03-11T18:02:57.521Z,14.65
2019-03-11T18:05:27.860Z,13.95
2019-03-11T18:07:58.107Z,13.05
2019-03-11T18:10:28.394Z,15.85
2019-03-11T18:12:58.972Z,12.90
2019-03-11T18:15:29.146Z,15.08
2019-03-11T18:17:59.316Z,34.03
2019-03-11T18:20:29.496Z,38.23
2019-03-11T18:22:59.790Z,49.25
2019-03-11T18:25:29.983Z,33.48
2019-03-11T18:28:00.263Z,28.83
2019-03-11T18:30:32.934Z,23.45
2019-03-11T18:33:03.110Z,19.98
2019-03-11T18:35:34.387Z,13.62
2019-03-11T18:38:05.232Z,11.40
2019-03-11T18:40:38.523Z,14.53
2019-03-11T18:43:20.196Z,32.78
2019-03-11T18:45:42.176Z,31.93
2019-03-11T18:48:12.598Z,27.05
2019-03-11T18:50:44.225Z,63.63
2019-03-11T18:53:15.298Z,124.05
2019-03-11T18:55:47.383Z,123.20
2019-03-11T18:58:19.232Z,117.72
2019-03-11T19:00:50.899Z,110.37
2019-03-11T19:03:21.785Z,98.78
2019-03-11T19:05:54.920Z,101.27
2019-03-11T19:08:27.410Z,95.05
2019-03-11T19:10:57.825Z,85.38
2019-03-11T19:13:28.265Z,88.45
2019-03-11T19:15:58.709Z,83.17
2019-03-11T19:18:29.086Z,78.62
2019-03-11T19:20:59.437Z,75.47
2019-03-11T19:23:29.779Z,71.55
2019-03-11T19:26:00.089Z,72.72
2019-03-11T19:28:31.465Z,72.27
2019-03-11T19:31:02.220Z,69.27
2019-03-11T19:33:32.594Z,68.78
2019-03-11T19:36:03.054Z,66.97
2019-03-11T19:38:34.570Z,64.12
2019-03-11T19:41:05.511Z,62.40
2019-03-11T19:43:36.445Z,63.05
2019-03-11T19:46:06.840Z,59.35
2019-03-11T19:48:37.383Z,59.85
2019-03-11T19:51:09.237Z,58.65
2019-03-11T19:53:39.721Z,60.73
2019-03-11T19:56:11.485Z,59.23
2019-03-11T19:58:41.821Z,59.63
2019-03-11T20:01:12.571Z,61.20
2019-03-11T20:03:43.174Z,60.98
2019-03-11T20:06:13.488Z,58.78
2019-03-11T20:08:44.430Z,57.38
2019-03-11T20:11:15.716Z,58.10
2019-03-11T20:13:48.863Z,56.50
2019-03-11T20:16:22.355Z,57.65
2019-03-11T20:18:55.540Z,57.10
2019-03-11T20:21:26.057Z,58.10
2019-03-11T20:23:56.529Z,58.30
2019-03-11T20:26:27.066Z,61.40
2019-03-11T20:28:57.461Z,62.73
2019-03-11T20:31:27.991Z,71.00
2019-03-11T20:33:58.515Z,71.85
2019-03-11T20:36:28.894Z,72.92
2019-03-11T20:38:59.338Z,71.05
2019-03-11T20:41:29.675Z,69.30
2019-03-11T20:44:00.140Z,70.50
2019-03-11T20:46:31.192Z,69.47
2019-03-11T20:49:01.512Z,69.65
2019-03-11T20:51:31.998Z,70.62
2019-03-11T20:54:02.416Z,67.58
2019-03-11T20:56:32.802Z,66.30
2019-03-11T20:59:03.731Z,67.20
2019-03-11T21:01:34.081Z,67.95
2019-03-11T21:04:05.596Z,68.55
2019-03-11T21:06:36.029Z,70.20
2019-03-11T21:09:08.733Z,80.38
2019-03-11T21:11:39.802Z,95.22
2019-03-11T21:14:10.557Z,100.12
2019-03-11T21:16:40.911Z,106.92
2019-03-11T21:19:11.329Z,105.92
2019-03-11T21:21:42.105Z,104.78
2019-03-11T21:24:13.874Z,102.82
2019-03-11T21:26:44.463Z,99.50
2019-03-11T21:29:15.446Z,102.05
2019-03-11T21:31:45.902Z,98.90
2019-03-11T21:34:16.300Z,96.42
2019-03-11T21:36:50.753Z,95.07
2019-03-11T21:39:21.742Z,92.65
2019-03-11T21:41:52.547Z,92.37
2019-03-11T21:44:22.932Z,92.08
2019-03-11T21:46:53.348Z,86.97
2019-03-11T21:49:23.694Z,89.20
2019-03-11T21:51:54.087Z,89.35
2019-03-11T21:54:24.481Z,85.60
2019-03-11T21:56:54.889Z,87.40
2019-03-11T21:59:25.330Z,86.78
2019-03-11T22:01:55.687Z,85.17
2019-03-11T22:04:26.040Z,85.25
2019-03-11T22:06:56.769Z,83.45
2019-03-11T22:09:27.252Z,82.02
2019-03-11T22:11:57.656Z,79.07
2019-03-11T22:14:28.122Z,77.67
2019-03-11T22:16:58.402Z,78.12
2019-03-11T22:19:28.807Z,79.50
2019-03-11T22:21:59.167Z,79.67
2019-03-11T22:24:29.454Z,83.75
2019-03-11T22:26:59.863Z,84.37
2019-03-11T22:29:30.563Z,81.12
2019-03-11T22:32:00.864Z,81.70
2019-03-11T22:34:31.160Z,82.95
2019-03-11T22:37:01.571Z,80.03
2019-03-11T22:39:34.043Z,81.40
2019-03-11T22:42:04.361Z,78.67
2019-03-11T22:44:34.743Z,81.17
2019-03-11T22:47:04.979Z,77.30
2019-03-11T22:49:35.342Z,80.15
2019-03-11T22:52:05.613Z,81.75
2019-03-11T22:54:35.974Z,78.85
2019-03-11T22:57:06.187Z,78.45
2019-03-11T22:59:36.576Z,77.97
2019-03-11T23:02:06.852Z,78.25
2019-03-11T23:04:37.683Z,76.87
2019-03-11T23:07:07.952Z,77.65
2019-03-11T23:09:38.267Z,75.97
2019-03-11T23:12:08.538Z,77.40
2019-03-11T23:14:38.849Z,77.75
2019-03-11T23:17:09.397Z,74.45
2019-03-11T23:19:39.726Z,76.87
2019-03-11T23:22:10.114Z,75.10
2019-03-11T23:24:40.437Z,73.80
2019-03-11T23:27:10.804Z,74.92
2019-03-11T23:29:41.252Z,73.90
2019-03-11T23:32:11.637Z,73.05
2019-03-11T23:34:42.043Z,74.97
2019-03-11T23:37:12.486Z,73.10
2019-03-11T23:39:42.812Z,73.75
2019-03-11T23:42:13.065Z,72.75
2019-03-11T23:44:43.406Z,71.15
2019-03-11T23:47:13.749Z,72.32
2019-03-11T23:49:44.069Z,72.45
2019-03-11T23:52:14.356Z,70.75
2019-03-11T23:54:44.596Z,68.85
2019-03-11T23:57:14.986Z,69.17
2019-03-11T23:59:45.237Z,68.52
